createdAt,value
2022-10-09T00:00:52.571Z,68.90
2022-10-09T00:03:19.571Z,68.80
2022-10-09T00:05:46.510Z,68.60
2022-10-09T00:08:13.205Z,69.00
2022-10-09T00:10:43.902Z,68.90
2022-10-09T00:13:13.516Z,70.70
2022-10-09T00:15:45.016Z,70.50
2022-10-09T00:18:14.186Z,70.90
2022-10-09T00:20:44.364Z,70.00
2022-10-09T00:23:14.586Z,70.20
2022-10-09T00:25:52.458Z,69.70
2022-10-09T00:28:19.709Z,71.30
2022-10-09T00:30:46.477Z,69.20
2022-10-09T00:33:13.236Z,69.00
2022-10-09T00:35:40.091Z,69.10
2022-10-09T00:38:07.081Z,69.10
2022-10-09T00:40:35.345Z,69.00
2022-10-09T00:43:03.032Z,70.00
2022-10-09T00:45:30.587Z,69.60
2022-10-09T00:48:06.348Z,69.60
2022-10-09T00:50:41.929Z,71.40
2022-10-09T00:53:12.625Z,71.10
2022-10-09T00:55:40.337Z,70.20
2022-10-09T00:58:08.192Z,70.00
2022-10-09T01:00:34.951Z,69.30
2022-10-09T01:03:01.636Z,69.10
2022-10-09T01:05:42.035Z,69.00
2022-10-09T01:08:19.208Z,70.90
2022-10-09T01:11:08.872Z,70.30
2022-10-09T01:13:55.119Z,71.30
2022-10-09T01:16:27.250Z,71.60
2022-10-09T01:19:02.792Z,70.90
2022-10-09T01:21:38.485Z,71.00
2022-10-09T01:24:17.162Z,71.20
2022-10-09T01:27:14.491Z,68.80
2022-10-09T01:29:48.838Z,71.30
2022-10-09T01:32:21.041Z,70.70
2022-10-09T01:34:49.473Z,71.00
2022-10-09T01:37:19.118Z,70.00
2022-10-09T01:39:47.474Z,70.30
2022-10-09T01:42:15.929Z,70.20
2022-10-09T01:44:42.873Z,70.70
2022-10-09T01:47:17.837Z,69.80
2022-10-09T01:50:08.758Z,71.70
2022-10-09T01:52:43.009Z,71.20
2022-10-09T01:55:20.208Z,71.30
2022-10-09T01:57:58.952Z,69.20
2022-10-09T02:00:27.127Z,72.30
2022-10-09T02:02:55.013Z,70.90
2022-10-09T02:05:26.153Z,70.10
2022-10-09T02:07:54.164Z,72.20
2022-10-09T02:10:23.308Z,70.70
2022-10-09T02:12:56.027Z,71.00
2022-10-09T02:15:27.734Z,71.80
2022-10-09T02:17:59.482Z,71.30
2022-10-09T02:20:31.246Z,71.40
2022-10-09T02:23:00.284Z,71.30
2022-10-09T02:25:27.074Z,71.00
2022-10-09T02:27:55.622Z,70.00
2022-10-09T02:30:25.139Z,71.30
2022-10-09T02:32:53.315Z,71.50
2022-10-09T02:35:20.573Z,71.00
2022-10-09T02:37:49.067Z,70.40
2022-10-09T02:40:16.265Z,70.30
2022-10-09T02:42:43.201Z,71.00
2022-10-09T02:45:10.369Z,70.40
2022-10-09T02:47:37.040Z,70.90
2022-10-09T02:50:03.991Z,70.40
2022-10-09T02:52:30.628Z,70.40
2022-10-09T02:54:57.290Z,70.20
2022-10-09T02:57:23.986Z,70.40
2022-10-09T02:59:50.756Z,70.30
2022-10-09T03:02:18.097Z,70.30
2022-10-09T03:04:44.826Z,70.30
2022-10-09T03:07:11.488Z,70.30
2022-10-09T03:09:38.151Z,70.30
2022-10-09T03:12:05.141Z,70.10
2022-10-09T03:14:31.825Z,70.40
2022-10-09T03:16:58.481Z,70.30
2022-10-09T03:19:25.156Z,70.30
2022-10-09T03:21:51.857Z,70.40
2022-10-09T03:24:18.505Z,70.30
2022-10-09T03:26:45.194Z,70.40
2022-10-09T03:29:11.860Z,70.40
2022-10-09T03:31:54.089Z,70.10
2022-10-09T03:34:20.866Z,70.20
2022-10-09T03:36:47.561Z,70.30
2022-10-09T03:39:14.379Z,70.10
2022-10-09T03:41:41.049Z,70.20
2022-10-09T03:44:07.765Z,70.10
2022-10-09T03:46:34.518Z,70.20
2022-10-09T03:49:01.318Z,70.30
2022-10-09T03:51:28.219Z,70.20
2022-10-09T03:53:54.877Z,70.40
2022-10-09T03:56:21.531Z,70.30
2022-10-09T03:58:48.223Z,70.40
2022-10-09T04:01:14.967Z,70.40
2022-10-09T04:03:41.676Z,70.50
2022-10-09T04:06:08.334Z,70.40
2022-10-09T04:08:35.557Z,70.70
2022-10-09T04:11:03.093Z,71.40
2022-10-09T04:13:29.768Z,71.00
2022-10-09T04:15:57.052Z,70.80
2022-10-09T04:18:25.121Z,71.40
2022-10-09T04:20:53.731Z,71.90
2022-10-09T04:23:23.213Z,71.80
2022-10-09T04:25:53.843Z,71.80
2022-10-09T04:28:21.032Z,72.50
2022-10-09T04:30:47.708Z,70.90
2022-10-09T04:33:14.569Z,70.80
2022-10-09T04:35:45.326Z,71.10
2022-10-09T04:38:12.390Z,72.70
2022-10-09T04:40:39.113Z,71.20
2022-10-09T04:43:05.835Z,70.90
2022-10-09T04:45:32.657Z,70.90
2022-10-09T04:47:59.382Z,71.10
2022-10-09T04:50:26.139Z,70.90
2022-10-09T04:52:58.524Z,71.10
2022-10-09T04:55:25.504Z,71.10
2022-10-09T04:57:52.259Z,71.00
2022-10-09T05:00:19.209Z,71.10
2022-10-09T05:02:46.135Z,70.90
2022-10-09T05:05:12.964Z,70.90
2022-10-09T05:07:39.645Z,70.90
2022-10-09T05:10:07.300Z,70.90
2022-10-09T05:12:34.000Z,71.70
2022-10-09T05:15:00.676Z,71.00
2022-10-09T05:17:27.907Z,70.90
2022-10-09T05:19:54.685Z,70.90
2022-10-09T05:22:21.470Z,70.90
2022-10-09T05:24:48.131Z,70.90
2022-10-09T05:27:14.826Z,71.00
2022-10-09T05:29:41.507Z,70.80
2022-10-09T05:32:08.257Z,70.90
2022-10-09T05:34:35.284Z,70.90
2022-10-09T05:37:01.939Z,72.50
2022-10-09T05:39:28.652Z,71.00
2022-10-09T05:41:55.322Z,71.00
2022-10-09T05:44:22.146Z,71.00
2022-10-09T05:46:48.830Z,71.10
2022-10-09T05:49:15.550Z,71.00
2022-10-09T05:51:45.140Z,71.10
2022-10-09T05:54:16.728Z,70.70
2022-10-09T05:56:44.719Z,73.10
2022-10-09T05:59:21.650Z,71.90
2022-10-09T06:01:50.597Z,74.20
2022-10-09T06:04:20.431Z,72.40
2022-10-09T06:06:48.506Z,72.70
2022-10-09T06:09:24.202Z,71.80
2022-10-09T06:11:52.121Z,72.00
2022-10-09T06:14:21.802Z,72.10
2022-10-09T06:16:48.756Z,71.60
2022-10-09T06:19:17.765Z,71.60
2022-10-09T06:21:45.464Z,72.70
2022-10-09T06:24:22.179Z,71.90
2022-10-09T06:26:51.114Z,73.50
2022-10-09T06:29:17.844Z,71.50
2022-10-09T06:31:44.500Z,71.60
2022-10-09T06:34:11.345Z,71.50
2022-10-09T06:36:38.033Z,71.40
2022-10-09T06:39:07.403Z,71.20
2022-10-09T06:41:34.907Z,72.70
2022-10-09T06:44:16.596Z,72.00
2022-10-09T06:46:44.988Z,72.00
2022-10-09T06:49:12.178Z,71.90
2022-10-09T06:51:39.118Z,71.20
2022-10-09T06:54:11.296Z,70.80
2022-10-09T06:56:37.972Z,72.10
2022-10-09T06:59:06.545Z,70.40
2022-10-09T07:01:34.698Z,71.70
2022-10-09T07:04:11.315Z,71.90
2022-10-09T07:06:40.635Z,72.70
2022-10-09T07:09:11.960Z,71.50
2022-10-09T07:11:42.865Z,72.30
2022-10-09T07:14:11.433Z,71.50
2022-10-09T07:16:40.365Z,71.20
2022-10-09T07:19:10.906Z,71.60
2022-10-09T07:21:39.607Z,71.60
2022-10-09T07:24:07.166Z,71.50
2022-10-09T07:26:36.717Z,70.90
2022-10-09T07:29:06.544Z,71.80
2022-10-09T07:31:33.268Z,71.70
2022-10-09T07:34:00.054Z,70.40
2022-10-09T07:36:27.033Z,70.40
2022-10-09T07:38:56.987Z,70.70
2022-10-09T07:41:26.296Z,71.70
2022-10-09T07:43:53.511Z,71.50
2022-10-09T07:46:22.435Z,70.80
2022-10-09T07:48:50.728Z,71.40
2022-10-09T07:51:28.972Z,70.80
2022-10-09T07:53:57.159Z,72.70
2022-10-09T07:56:26.586Z,70.30
2022-10-09T07:58:55.454Z,71.70
2022-10-09T08:01:23.350Z,71.60
2022-10-09T08:03:50.542Z,70.80
2022-10-09T08:06:18.236Z,70.30
2022-10-09T08:08:45.737Z,70.80
2022-10-09T08:11:14.954Z,70.20
2022-10-09T08:13:42.932Z,70.70
2022-10-09T08:16:10.043Z,70.10
2022-10-09T08:18:37.291Z,69.70
2022-10-09T08:21:07.974Z,69.80
2022-10-09T08:23:34.855Z,70.70
2022-10-09T08:26:01.871Z,69.10
2022-10-09T08:28:28.814Z,68.80
2022-10-09T08:30:55.703Z,68.40
2022-10-09T08:33:24.862Z,68.40
2022-10-09T08:35:52.094Z,69.10
2022-10-09T08:38:44.871Z,68.70
2022-10-09T08:41:23.653Z,69.10
2022-10-09T08:43:56.097Z,69.80
2022-10-09T08:46:29.078Z,69.60
2022-10-09T08:48:56.236Z,69.90
2022-10-09T08:51:29.498Z,68.30
2022-10-09T08:54:09.170Z,69.50
2022-10-09T08:56:36.330Z,68.90
2022-10-09T08:59:03.016Z,67.60
2022-10-09T09:01:41.712Z,67.30
2022-10-09T09:04:32.601Z,69.00
2022-10-09T09:07:22.495Z,68.40
2022-10-09T09:10:03.153Z,68.40
2022-10-09T09:12:50.620Z,68.30
2022-10-09T09:15:44.713Z,68.10
2022-10-09T09:18:32.017Z,68.50
2022-10-09T09:21:05.298Z,67.20
2022-10-09T09:23:39.598Z,67.20
2022-10-09T09:26:14.645Z,67.10
2022-10-09T09:28:42.498Z,67.30
2022-10-09T09:31:21.071Z,65.40
2022-10-09T09:34:04.185Z,66.60
2022-10-09T09:36:48.683Z,66.10
2022-10-09T09:42:21.453Z,64.00
2022-10-09T09:44:56.225Z,65.60
2022-10-09T09:47:41.610Z,64.80
2022-10-09T09:50:23.387Z,65.10
2022-10-09T09:52:56.783Z,63.10
2022-10-09T09:55:27.422Z,63.10
2022-10-09T09:58:05.697Z,63.30
2022-10-09T10:00:33.700Z,63.90
2022-10-09T10:03:13.569Z,63.60
2022-10-09T10:05:41.927Z,63.70
2022-10-09T10:08:26.428Z,61.90
2022-10-09T10:11:02.725Z,62.40
2022-10-09T10:13:46.513Z,61.60
2022-10-09T10:16:23.432Z,62.10
2022-10-09T10:18:50.719Z,61.40
2022-10-09T10:21:19.265Z,59.50
2022-10-09T10:23:56.009Z,60.00
2022-10-09T10:26:28.477Z,60.00
2022-10-09T10:29:02.533Z,60.00
2022-10-09T10:31:53.678Z,60.00
2022-10-09T10:34:44.984Z,60.10
2022-10-09T10:37:32.963Z,59.30
2022-10-09T10:40:07.313Z,59.20
2022-10-09T10:42:48.500Z,58.20
2022-10-09T10:45:24.445Z,58.80
2022-10-09T10:47:57.040Z,58.30
2022-10-09T10:50:29.477Z,58.10
2022-10-09T10:53:02.723Z,57.80
2022-10-09T10:55:55.692Z,57.90
2022-10-09T10:58:38.176Z,57.70
2022-10-09T11:01:31.176Z,56.40
2022-10-09T11:04:10.274Z,56.20
2022-10-09T11:06:59.332Z,56.80
2022-10-09T11:09:32.777Z,55.60
2022-10-09T11:12:19.546Z,56.10
2022-10-09T11:15:25.301Z,55.00
2022-10-09T11:17:57.874Z,54.00
2022-10-09T11:20:53.201Z,54.40
2022-10-09T11:23:38.149Z,53.00
2022-10-09T11:26:37.049Z,53.40
2022-10-09T11:29:15.162Z,53.40
2022-10-09T11:32:10.401Z,52.80
2022-10-09T11:34:58.451Z,52.60
2022-10-09T11:37:29.742Z,52.70
2022-10-09T11:39:56.955Z,52.20
2022-10-09T11:42:26.059Z,51.20
2022-10-09T11:45:14.608Z,51.20
2022-10-09T11:48:04.005Z,51.40
2022-10-09T11:50:48.732Z,51.00
2022-10-09T11:53:18.150Z,50.80
2022-10-09T11:55:45.801Z,50.00
2022-10-09T11:58:25.887Z,49.30
2022-10-09T12:00:55.985Z,50.50
2022-10-09T12:03:35.950Z,49.20
2022-10-09T12:06:07.752Z,49.40
2022-10-09T12:08:35.610Z,49.00
2022-10-09T12:11:18.430Z,49.40
2022-10-09T12:13:54.882Z,49.10
2022-10-09T12:16:44.909Z,47.90
2022-10-09T12:19:23.723Z,47.90
2022-10-09T12:22:00.734Z,48.20
2022-10-09T12:24:33.277Z,46.70
2022-10-09T12:27:03.197Z,46.80
2022-10-09T12:29:53.603Z,45.90
2022-10-09T12:32:31.301Z,46.10
2022-10-09T12:34:59.039Z,46.10
2022-10-09T12:37:35.437Z,44.90
2022-10-09T12:40:14.312Z,45.40
2022-10-09T12:42:42.671Z,45.90
2022-10-09T12:45:21.267Z,45.20
2022-10-09T12:47:48.762Z,45.30
2022-10-09T12:50:24.315Z,44.30
2022-10-09T12:52:57.466Z,44.30
2022-10-09T12:55:31.094Z,43.30
2022-10-09T12:58:28.928Z,44.30
2022-10-09T13:01:01.953Z,43.30
2022-10-09T13:03:36.067Z,43.20
2022-10-09T13:06:05.749Z,42.10
2022-10-09T13:08:35.958Z,41.90
2022-10-09T13:11:28.541Z,42.50
2022-10-09T13:13:55.393Z,42.60
2022-10-09T13:16:23.187Z,42.10
2022-10-09T13:19:02.380Z,42.10
2022-10-09T13:21:34.428Z,42.90
2022-10-09T13:24:13.189Z,42.40
2022-10-09T13:26:42.739Z,42.40
2022-10-09T13:29:11.873Z,42.40
2022-10-09T13:31:43.431Z,42.10
2022-10-09T13:34:12.928Z,42.30
2022-10-09T13:36:40.412Z,42.20
2022-10-09T13:39:07.131Z,41.60
2022-10-09T13:41:33.926Z,41.30
2022-10-09T13:44:00.669Z,41.10
2022-10-09T13:46:27.358Z,41.10
2022-10-09T13:48:54.053Z,41.60
2022-10-09T13:51:20.757Z,42.00
2022-10-09T13:53:47.469Z,42.60
2022-10-09T13:56:14.125Z,42.70
2022-10-09T13:58:40.856Z,42.90
2022-10-09T14:01:09.391Z,43.40
2022-10-09T14:03:36.132Z,43.60
2022-10-09T14:06:03.819Z,43.30
2022-10-09T14:08:31.162Z,43.80
2022-10-09T14:11:01.615Z,44.00
2022-10-09T14:13:29.082Z,44.40
2022-10-09T14:15:56.066Z,44.00
2022-10-09T14:18:22.728Z,43.90
2022-10-09T14:20:49.574Z,43.70
2022-10-09T14:23:16.264Z,44.00
2022-10-09T14:25:42.936Z,44.30
2022-10-09T14:28:09.779Z,44.70
2022-10-09T14:30:40.827Z,44.30
2022-10-09T14:33:07.538Z,44.50
2022-10-09T14:35:34.499Z,43.90
2022-10-09T14:38:01.383Z,44.00
2022-10-09T14:40:28.079Z,44.10
2022-10-09T14:42:54.712Z,44.20
2022-10-09T14:45:21.377Z,44.50
2022-10-09T14:47:48.073Z,44.90
2022-10-09T14:50:14.797Z,45.10
2022-10-09T14:52:42.191Z,44.70
2022-10-09T14:55:09.098Z,44.50
2022-10-09T14:57:35.953Z,44.70
2022-10-09T15:00:04.970Z,44.50
2022-10-09T15:02:31.753Z,44.60
2022-10-09T15:04:58.448Z,44.40
2022-10-09T15:07:27.910Z,44.60
2022-10-09T15:09:55.273Z,44.00
2022-10-09T15:12:21.993Z,44.20
2022-10-09T15:14:48.686Z,44.00
2022-10-09T15:17:15.375Z,44.50
2022-10-09T15:19:42.017Z,44.20
2022-10-09T15:22:08.780Z,44.00
2022-10-09T15:24:35.523Z,44.40
2022-10-09T15:27:02.238Z,44.00
2022-10-09T15:29:28.890Z,44.00
2022-10-09T15:31:55.684Z,43.80
2022-10-09T15:34:22.414Z,43.80
2022-10-09T15:36:49.259Z,43.70
2022-10-09T15:39:15.928Z,43.30
2022-10-09T15:41:43.286Z,43.10
2022-10-09T15:44:19.344Z,43.10
2022-10-09T15:46:47.532Z,43.70
2022-10-09T15:49:14.505Z,43.50
2022-10-09T15:51:42.426Z,43.90
2022-10-09T15:54:10.648Z,43.60
2022-10-09T15:56:39.977Z,43.80
2022-10-09T15:59:10.303Z,44.30
2022-10-09T16:01:37.103Z,45.00
2022-10-09T16:04:03.776Z,44.80
2022-10-09T16:06:30.473Z,45.00
2022-10-09T16:08:58.394Z,45.10
2022-10-09T16:11:26.693Z,45.40
2022-10-09T16:13:54.200Z,45.50
2022-10-09T16:16:23.186Z,45.70
2022-10-09T16:18:50.450Z,46.20
2022-10-09T16:21:19.794Z,46.20
2022-10-09T16:23:47.408Z,46.90
2022-10-09T16:26:18.881Z,46.60
2022-10-09T16:28:46.958Z,47.40
2022-10-09T16:31:20.667Z,47.20
2022-10-09T16:33:47.908Z,48.50
2022-10-09T16:36:15.242Z,47.80
2022-10-09T16:38:42.277Z,48.10
2022-10-09T16:41:10.811Z,48.10
2022-10-09T16:43:38.264Z,48.80
2022-10-09T16:46:15.010Z,49.10
2022-10-09T16:48:42.015Z,50.20
2022-10-09T16:51:10.716Z,49.50
2022-10-09T16:53:37.496Z,50.40
2022-10-09T16:56:13.158Z,50.40
2022-10-09T16:58:41.812Z,52.20
2022-10-09T17:01:10.546Z,51.60
2022-10-09T17:03:40.401Z,51.50
2022-10-09T17:06:16.315Z,51.90
2022-10-09T17:08:43.042Z,53.70
2022-10-09T17:11:11.829Z,52.50
2022-10-09T17:13:39.171Z,53.70
2022-10-09T17:16:08.333Z,53.90
2022-10-09T17:18:36.026Z,54.60
2022-10-09T17:21:08.102Z,54.70
2022-10-09T17:23:35.414Z,55.20
2022-10-09T17:26:11.581Z,54.80
2022-10-09T17:28:39.330Z,56.60
2022-10-09T17:31:08.104Z,55.80
2022-10-09T17:33:41.014Z,56.50
2022-10-09T17:36:09.090Z,56.50
2022-10-09T17:38:36.083Z,57.40
2022-10-09T17:41:06.795Z,56.80
2022-10-09T17:43:33.686Z,58.60
2022-10-09T17:46:00.888Z,57.00
2022-10-09T17:48:28.137Z,57.20
2022-10-09T17:50:57.146Z,57.70
2022-10-09T17:53:24.492Z,58.70
2022-10-09T17:55:53.050Z,58.30
2022-10-09T17:58:23.164Z,58.70
2022-10-09T18:00:50.871Z,58.90
2022-10-09T18:03:18.049Z,58.90
2022-10-09T18:05:49.717Z,58.70
2022-10-09T18:08:18.523Z,59.30
2022-10-09T18:10:45.910Z,59.70
2022-10-09T18:13:12.669Z,59.30
2022-10-09T18:15:43.839Z,59.00
2022-10-09T18:18:11.546Z,60.80
2022-10-09T18:20:39.579Z,59.90
2022-10-09T18:23:07.660Z,60.00
2022-10-09T18:25:35.275Z,61.80
2022-10-09T18:28:02.393Z,60.50
2022-10-09T18:30:29.113Z,60.00
2022-10-09T18:32:55.858Z,60.00
2022-10-09T18:35:22.616Z,60.30
2022-10-09T18:37:49.281Z,60.60
2022-10-09T18:40:16.012Z,60.60
2022-10-09T18:42:42.867Z,60.80
2022-10-09T18:45:13.433Z,60.60
2022-10-09T18:47:40.973Z,62.30
2022-10-09T18:50:10.941Z,62.30
2022-10-09T18:52:39.966Z,62.50
2022-10-09T18:55:09.520Z,61.70
2022-10-09T18:57:38.421Z,62.20
2022-10-09T19:00:05.850Z,62.20
2022-10-09T19:02:32.868Z,61.70
2022-10-09T19:04:59.618Z,61.40
2022-10-09T19:07:26.685Z,61.50
2022-10-09T19:09:57.176Z,61.80
2022-10-09T19:12:24.958Z,62.00
2022-10-09T19:14:52.257Z,62.10
2022-10-09T19:17:19.366Z,62.50
2022-10-09T19:19:46.086Z,62.10
2022-10-09T19:22:16.609Z,61.80
2022-10-09T19:24:44.985Z,61.90
2022-10-09T19:27:11.886Z,62.10
2022-10-09T19:29:38.719Z,62.10
2022-10-09T19:32:05.390Z,62.30
2022-10-09T19:34:32.110Z,62.30
2022-10-09T19:36:59.209Z,62.40
2022-10-09T19:39:26.065Z,62.50
2022-10-09T19:41:52.814Z,63.00
2022-10-09T19:44:19.545Z,62.60
2022-10-09T19:46:46.702Z,62.70
2022-10-09T19:49:13.526Z,62.80
2022-10-09T19:51:40.376Z,62.80
2022-10-09T19:54:09.337Z,63.00
2022-10-09T19:56:37.072Z,64.30
2022-10-09T19:59:07.238Z,63.80
2022-10-09T20:01:35.765Z,64.60
2022-10-09T20:04:07.601Z,63.90
2022-10-09T20:06:36.964Z,64.70
2022-10-09T20:09:05.353Z,64.70
2022-10-09T20:11:34.542Z,64.20
2022-10-09T20:14:01.889Z,64.50
2022-10-09T20:16:31.989Z,64.30
2022-10-09T20:19:00.120Z,64.60
2022-10-09T20:21:29.105Z,64.50
2022-10-09T20:23:57.388Z,64.50
2022-10-09T20:26:24.841Z,64.80
2022-10-09T20:28:55.150Z,64.40
2022-10-09T20:31:24.347Z,65.20
2022-10-09T20:33:51.750Z,65.10
2022-10-09T20:36:27.978Z,64.50
2022-10-09T20:38:56.536Z,65.00
2022-10-09T20:41:23.699Z,65.00
2022-10-09T20:43:52.746Z,64.20
2022-10-09T20:46:21.408Z,65.20
2022-10-09T20:48:48.506Z,64.70
2022-10-09T20:51:15.870Z,64.50
2022-10-09T20:53:42.599Z,64.90
2022-10-09T20:56:12.339Z,64.30
2022-10-09T20:58:39.630Z,65.70
2022-10-09T21:01:11.355Z,64.30
2022-10-09T21:03:39.167Z,65.90
2022-10-09T21:06:08.912Z,65.00
2022-10-09T21:08:36.013Z,65.40
2022-10-09T21:11:06.895Z,64.70
2022-10-09T21:13:33.960Z,65.60
2022-10-09T21:16:00.768Z,64.00
2022-10-09T21:18:27.414Z,64.20
2022-10-09T21:20:54.094Z,64.30
2022-10-09T21:23:20.933Z,64.50
2022-10-09T21:25:50.218Z,64.50
2022-10-09T21:28:19.727Z,65.50
2022-10-09T21:30:46.801Z,65.50
2022-10-09T21:33:13.800Z,64.10
2022-10-09T21:35:49.859Z,64.20
2022-10-09T21:38:19.336Z,66.10
2022-10-09T21:40:47.095Z,65.30
2022-10-09T21:43:13.867Z,64.70
2022-10-09T21:45:41.104Z,64.10
2022-10-09T21:48:08.246Z,63.50
2022-10-09T21:50:36.592Z,64.10
2022-10-09T21:53:04.371Z,63.80
2022-10-09T21:55:31.222Z,63.60
2022-10-09T21:57:57.893Z,63.10
2022-10-09T22:00:24.613Z,62.80
2022-10-09T22:02:51.647Z,62.90
2022-10-09T22:05:18.644Z,62.90
2022-10-09T22:07:45.369Z,63.10
2022-10-09T22:10:12.406Z,63.00
2022-10-09T22:12:39.236Z,62.70
2022-10-09T22:15:06.396Z,63.00
2022-10-09T22:17:33.107Z,63.10
2022-10-09T22:19:59.921Z,62.80
2022-10-09T22:22:26.876Z,63.20
2022-10-09T22:24:53.848Z,63.80
2022-10-09T22:27:20.969Z,63.40
2022-10-09T22:29:47.667Z,64.60
2022-10-09T22:32:14.387Z,63.30
2022-10-09T22:34:41.093Z,63.60
2022-10-09T22:37:07.785Z,63.50
2022-10-09T22:39:34.684Z,63.60
2022-10-09T22:42:01.365Z,63.90
2022-10-09T22:44:28.096Z,64.10
2022-10-09T22:46:54.883Z,64.20
2022-10-09T22:49:21.567Z,64.30
2022-10-09T22:51:48.276Z,64.40
2022-10-09T22:54:15.108Z,64.50
2022-10-09T22:56:45.081Z,65.60
2022-10-09T22:59:14.901Z,66.30
2022-10-09T23:01:48.982Z,67.20
2022-10-09T23:04:17.075Z,66.00
2022-10-09T23:06:44.542Z,65.90
2022-10-09T23:09:13.888Z,65.40
2022-10-09T23:11:40.867Z,66.10
2022-10-09T23:14:08.178Z,65.20
2022-10-09T23:16:34.903Z,65.30
2022-10-09T23:19:06.709Z,65.20
2022-10-09T23:21:34.758Z,66.40
2022-10-09T23:24:01.604Z,65.90
2022-10-09T23:26:31.108Z,65.30
2022-10-09T23:29:03.653Z,67.70
2022-10-09T23:31:30.855Z,66.90
2022-10-09T23:33:58.152Z,65.70
2022-10-09T23:36:26.961Z,66.00
2022-10-09T23:38:54.296Z,66.60
2022-10-09T23:41:24.297Z,65.90
2022-10-09T23:43:51.160Z,66.60
2022-10-09T23:46:21.218Z,65.20
2022-10-09T23:48:49.449Z,66.30
2022-10-09T23:51:17.208Z,65.40
2022-10-09T23:53:44.628Z,65.20
2022-10-09T23:56:18.221Z,65.00
2022-10-09T23:58:46.012Z,65.50
